Time;durP1;ratioP1;P1;durP2;ratioP2;P2;SDS_P1;SDS_P2;PMS_P1;PMS_P2;Temp;Humidity;BMP_temperature;BMP_pressure;BME280_temperature;BME280_humidity;BME280_pressure;Samples;Min_cycle;Max_cycle;Signal;HPM_P1;HPM_P2
2021/10/14 00:05:12;;;;;;;1.13;0.60;;;18.20;73.60;;;;;;10494979;22;20578;-64
2021/10/14 00:10:35;;;;;;;0.90;0.60;;;18.30;73.70;;;;;;10365278;28;20206;-65
2021/10/14 00:15:57;;;;;;;1.37;0.80;;;18.30;73.70;;;;;;10374254;28;20222;-66
2021/10/14 00:21:19;;;;;;;0.67;0.60;;;18.20;73.70;;;;;;10368117;28;20242;-64
2021/10/14 00:26:43;;;;;;;1.20;0.60;;;18.20;73.70;;;;;;10373749;28;20705;-62
2021/10/14 00:32:05;;;;;;;1.43;0.80;;;18.20;73.80;;;;;;10373258;28;20197;-65
2021/10/14 00:37:28;;;;;;;1.03;0.60;;;18.20;73.80;;;;;;10374688;28;20219;-65
2021/10/14 00:42:52;;;;;;;1.00;0.60;;;18.30;73.80;;;;;;10374261;28;20724;-65
2021/10/14 00:48:14;;;;;;;0.40;0.40;;;18.20;73.70;;;;;;10373981;28;20210;-65
2021/10/14 00:53:38;;;;;;;0.60;0.60;;;18.30;73.70;;;;;;10374033;28;20211;-65
2021/10/14 00:59:03;;;;;;;1.50;0.70;;;18.20;73.70;;;;;;10372014;28;20337;-65
2021/10/14 01:04:25;;;;;;;1.13;0.70;;;18.20;73.70;;;;;;10372439;28;20214;-65
2021/10/14 01:09:47;;;;;;;0.70;0.50;;;18.20;73.80;;;;;;10372122;28;20198;-66
2021/10/14 01:15:19;;;;;;;0.70;0.60;;;18.20;73.80;;;;;;10372501;28;20218;-65
2021/10/14 01:20:43;;;;;;;0.80;0.60;;;18.20;73.80;;;;;;10371530;28;20215;-65
2021/10/14 01:26:05;;;;;;;0.57;0.50;;;18.20;73.80;;;;;;10371531;28;20214;-66
2021/10/14 01:31:28;;;;;;;0.57;0.50;;;18.20;73.70;;;;;;10371758;28;20194;-65
2021/10/14 01:36:51;;;;;;;1.23;0.60;;;18.20;73.70;;;;;;10371526;28;20720;-65
2021/10/14 01:42:13;;;;;;;1.27;0.67;;;18.20;73.80;;;;;;10370330;28;20218;-65
2021/10/14 01:47:36;;;;;;;0.83;0.60;;;18.20;73.80;;;;;;10371985;28;20709;-65
2021/10/14 01:52:59;;;;;;;1.30;0.70;;;18.20;73.80;;;;;;10371385;28;20757;-65
2021/10/14 01:58:22;;;;;;;0.80;0.60;;;18.10;73.80;;;;;;10370925;28;20233;-65
2021/10/14 02:03:44;;;;;;;0.77;0.53;;;18.20;73.90;;;;;;10369722;28;20590;-66
2021/10/14 02:09:07;;;;;;;0.90;0.60;;;18.20;73.80;;;;;;10370446;28;20226;-65
2021/10/14 02:14:29;;;;;;;0.57;0.50;;;18.20;73.80;;;;;;10369474;28;20205;-65
2021/10/14 02:19:51;;;;;;;0.60;0.60;;;18.20;73.90;;;;;;10369519;28;20203;-65
2021/10/14 02:25:17;;;;;;;0.77;0.50;;;18.20;73.90;;;;;;10331763;28;20218;-65
2021/10/14 02:30:39;;;;;;;1.40;0.67;;;18.20;73.90;;;;;;10370611;28;20195;-65
2021/10/14 02:36:01;;;;;;;0.77;0.60;;;18.20;73.90;;;;;;10370565;28;20218;-65
2021/10/14 02:41:25;;;;;;;0.60;0.50;;;18.10;74.00;;;;;;10369464;28;20218;-65
2021/10/14 02:46:47;;;;;;;1.10;0.60;;;18.10;74.00;;;;;;10369749;28;20305;-65
2021/10/14 02:52:09;;;;;;;0.50;0.40;;;18.20;74.00;;;;;;10369592;28;20677;-65
2021/10/14 02:57:32;;;;;;;1.80;0.70;;;18.10;73.90;;;;;;10370225;28;20218;-66
2021/10/14 03:02:54;;;;;;;0.90;0.40;;;18.20;74.00;;;;;;10366994;28;20226;-65
2021/10/14 03:08:16;;;;;;;0.57;0.40;;;18.10;74.00;;;;;;10369290;28;20234;-65
2021/10/14 03:13:40;;;;;;;0.63;0.50;;;18.10;74.00;;;;;;10367606;28;20206;-65
2021/10/14 03:19:02;;;;;;;0.77;0.47;;;18.10;74.00;;;;;;10367453;28;20218;-65
2021/10/14 03:24:24;;;;;;;0.50;0.33;;;18.10;74.10;;;;;;10371197;28;20222;-66
2021/10/14 03:29:47;;;;;;;0.50;0.40;;;18.10;74.10;;;;;;10376019;28;20202;-66
2021/10/14 03:35:10;;;;;;;0.60;0.53;;;18.10;74.10;;;;;;10375519;28;20218;-64
2021/10/14 03:40:32;;;;;;;0.70;0.53;;;18.10;74.10;;;;;;10376522;28;20203;-66
2021/10/14 03:45:55;;;;;;;1.03;0.60;;;18.20;74.10;;;;;;10376551;28;20214;-65
2021/10/14 03:51:17;;;;;;;0.63;0.60;;;18.20;74.00;;;;;;10375368;28;20575;-65
2021/10/14 03:56:39;;;;;;;1.50;0.60;;;18.20;73.90;;;;;;10375756;28;20230;-66
2021/10/14 04:02:03;;;;;;;0.90;0.60;;;18.20;73.80;;;;;;10375000;28;20222;-65
2021/10/14 04:07:25;;;;;;;1.30;0.60;;;18.30;73.90;;;;;;10375194;28;20709;-66
2021/10/14 04:12:47;;;;;;;0.97;0.50;;;18.30;73.90;;;;;;10375363;28;20202;-66
2021/10/14 04:18:12;;;;;;;0.57;0.53;;;18.30;73.80;;;;;;10374750;28;20225;-65
2021/10/14 04:23:34;;;;;;;1.23;0.77;;;18.30;73.80;;;;;;10374794;28;20570;-66
2021/10/14 04:28:56;;;;;;;0.73;0.67;;;18.30;73.80;;;;;;10374324;28;20241;-65
2021/10/14 04:34:21;;;;;;;0.60;0.60;;;18.30;73.70;;;;;;10374547;28;20207;-65
2021/10/14 04:39:43;;;;;;;1.00;0.60;;;18.30;73.70;;;;;;10372872;28;20194;-66
2021/10/14 04:45:06;;;;;;;0.70;0.60;;;18.30;73.60;;;;;;10374126;28;20225;-65
2021/10/14 04:50:30;;;;;;;0.87;0.60;;;18.30;73.60;;;;;;10373657;28;20698;-65
2021/10/14 04:55:52;;;;;;;1.47;0.70;;;18.40;73.70;;;;;;10373105;28;20298;-65
2021/10/14 05:01:14;;;;;;;1.10;0.60;;;18.40;73.70;;;;;;10372401;28;20214;-64
2021/10/14 05:06:37;;;;;;;1.07;0.70;;;18.40;73.70;;;;;;10373090;28;20237;-66
2021/10/14 05:12:00;;;;;;;0.70;0.70;;;18.40;73.80;;;;;;10370531;28;20195;-65
2021/10/14 05:17:22;;;;;;;1.03;0.90;;;18.40;73.70;;;;;;10372411;28;20223;-65
2021/10/14 05:22:45;;;;;;;1.00;0.90;;;18.40;73.70;;;;;;10372676;28;20214;-66
2021/10/14 05:28:07;;;;;;;1.42;1.00;;;18.40;73.70;;;;;;10370078;28;20438;-64
2021/10/14 05:33:30;;;;;;;1.50;0.80;;;18.90;72.00;;;;;;10371851;28;20191;-64
2021/10/14 05:38:53;;;;;;;1.97;1.13;;;18.70;72.50;;;;;;10371547;28;20224;-64
2021/10/14 05:44:15;;;;;;;0.83;0.70;;;18.60;72.90;;;;;;10370405;28;20603;-64
2021/10/14 05:49:37;;;;;;;1.50;1.07;;;18.60;73.10;;;;;;10369434;28;20584;-64
2021/10/14 05:55:00;;;;;;;1.40;1.00;;;18.50;73.20;;;;;;10369507;28;20593;-64
2021/10/14 06:00:23;;;;;;;1.50;1.20;;;18.50;73.30;;;;;;10370376;28;20229;-64
2021/10/14 06:05:45;;;;;;;1.40;1.20;;;18.50;73.30;;;;;;10404804;22;20231;-67
2021/10/14 06:11:08;;;;;;;1.37;1.07;;;18.50;73.50;;;;;;10468861;28;20216;-67
2021/10/14 06:16:30;;;;;;;2.23;1.23;;;18.50;73.50;;;;;;10471561;28;20193;-67
2021/10/14 06:21:52;;;;;;;1.67;1.00;;;18.50;73.60;;;;;;10471967;28;20235;-67
2021/10/14 06:27:16;;;;;;;1.27;1.10;;;18.50;73.60;;;;;;10461829;28;20680;-68
2021/10/14 06:32:38;;;;;;;1.60;1.10;;;18.50;73.60;;;;;;10461491;28;20216;-68
2021/10/14 06:38:00;;;;;;;2.93;1.20;;;18.50;73.60;;;;;;10482401;28;20219;-69
2021/10/14 06:43:24;;;;;;;2.63;1.40;;;18.50;73.50;;;;;;10483196;28;20240;-68
2021/10/14 06:48:46;;;;;;;1.60;1.10;;;18.50;73.50;;;;;;10472284;28;20228;-68
2021/10/14 06:54:08;;;;;;;4.70;1.80;;;18.50;73.60;;;;;;10462282;28;20192;-68
2021/10/14 06:59:31;;;;;;;1.80;1.33;;;18.50;73.80;;;;;;10459874;28;20217;-68
2021/10/14 07:04:54;;;;;;;1.93;1.30;;;18.50;73.80;;;;;;10485793;28;20224;-68
2021/10/14 07:10:16;;;;;;;2.20;1.50;;;18.50;73.70;;;;;;10499076;28;20227;-68
2021/10/14 07:15:39;;;;;;;2.00;1.43;;;18.50;73.60;;;;;;10481465;28;20204;-68
2021/10/14 07:21:02;;;;;;;2.13;1.20;;;18.50;73.90;;;;;;10474999;28;20223;-69
2021/10/14 07:26:24;;;;;;;1.87;1.30;;;18.50;73.80;;;;;;10478414;28;20665;-68
2021/10/14 07:31:47;;;;;;;1.57;1.10;;;18.50;73.90;;;;;;10490124;28;20220;-68
2021/10/14 07:37:10;;;;;;;1.47;1.03;;;18.50;73.90;;;;;;10497591;28;20200;-69
2021/10/14 07:42:32;;;;;;;3.33;1.57;;;18.50;73.90;;;;;;10458160;28;20235;-68
2021/10/14 07:47:55;;;;;;;1.47;1.17;;;18.50;74.00;;;;;;10470707;28;20509;-68
2021/10/14 07:53:20;;;;;;;1.33;1.13;;;18.50;74.00;;;;;;10468504;28;20193;-68
2021/10/14 07:58:42;;;;;;;2.57;1.10;;;18.50;74.00;;;;;;10466690;28;20220;-68
2021/10/14 08:04:08;;;;;;;1.93;1.10;;;18.50;74.00;;;;;;10494701;28;20216;-68
2021/10/14 08:09:30;;;;;;;1.57;1.00;;;18.50;74.10;;;;;;10497111;28;20235;-69
2021/10/14 08:14:53;;;;;;;1.97;1.20;;;18.50;74.10;;;;;;10466818;28;20593;-68
2021/10/14 08:20:17;;;;;;;2.30;1.20;;;18.50;74.10;;;;;;10469941;28;20232;-68
2021/10/14 08:25:39;;;;;;;2.40;1.23;;;18.40;74.10;;;;;;10495149;28;20220;-68
2021/10/14 08:31:01;;;;;;;1.97;1.20;;;18.50;74.20;;;;;;10492986;28;20221;-68
2021/10/14 08:36:24;;;;;;;2.00;1.17;;;18.50;74.20;;;;;;10494645;28;20689;-68
2021/10/14 08:41:47;;;;;;;1.07;0.97;;;18.50;74.30;;;;;;10491550;28;20315;-69
2021/10/14 08:47:12;;;;;;;1.20;1.10;;;18.60;74.40;;;;;;10477183;28;20197;-69
2021/10/14 08:52:35;;;;;;;1.43;1.10;;;18.60;74.50;;;;;;10478740;28;20204;-68
2021/10/14 08:57:58;;;;;;;2.70;1.00;;;18.70;74.40;;;;;;10469046;28;20232;-68
2021/10/14 09:03:29;;;;;;;1.40;1.10;;;18.70;74.20;;;;;;10461936;28;20586;-68
2021/10/14 09:08:54;;;;;;;1.50;1.07;;;18.70;74.00;;;;;;10485607;28;20225;-68
2021/10/14 09:14:20;;;;;;;1.53;1.03;;;18.70;74.00;;;;;;10481638;28;20196;-68
2021/10/14 09:19:42;;;;;;;1.07;1.03;;;18.70;73.90;;;;;;10453330;28;20294;-68
2021/10/14 09:25:08;;;;;;;2.43;1.17;;;18.80;73.90;;;;;;10465647;28;20244;-68
2021/10/14 09:30:30;;;;;;;1.47;1.00;;;18.80;73.90;;;;;;10487314;28;20216;-68
2021/10/14 09:35:52;;;;;;;1.60;1.00;;;18.80;73.90;;;;;;10479300;28;20341;-68
2021/10/14 09:41:18;;;;;;;1.13;0.90;;;18.80;73.80;;;;;;10454588;28;20228;-68
2021/10/14 09:46:42;;;;;;;1.60;0.90;;;18.80;73.80;;;;;;10466101;28;20562;-68
2021/10/14 09:52:04;;;;;;;2.27;1.00;;;18.70;73.80;;;;;;10484588;28;20220;-68
2021/10/14 09:57:27;;;;;;;1.23;1.10;;;18.80;73.80;;;;;;10457732;28;20200;-68
2021/10/14 10:02:53;;;;;;;2.07;1.10;;;18.80;73.80;;;;;;10458577;28;20217;-67
2021/10/14 10:08:26;;;;;;;2.30;1.40;;;18.80;73.80;;;;;;10449776;28;20232;-67
2021/10/14 10:13:52;;;;;;;2.00;1.40;;;18.70;73.70;;;;;;10460758;28;20411;-67
2021/10/14 10:19:14;;;;;;;2.53;1.10;;;19.40;71.10;;;;;;10466250;28;20216;-67
2021/10/14 10:24:36;;;;;;;1.30;1.00;;;19.00;72.50;;;;;;10475671;28;20228;-67
2021/10/14 10:30:00;;;;;;;2.23;1.20;;;18.80;73.30;;;;;;10476512;28;20701;-67
2021/10/14 10:35:39;;;;;;;1.43;0.93;;;18.70;73.60;;;;;;10484620;28;20203;-67
2021/10/14 10:41:03;;;;;;;3.00;1.00;;;18.70;73.80;;;;;;10488775;28;20216;-67
2021/10/14 10:46:29;;;;;;;1.20;1.10;;;18.70;74.10;;;;;;10461482;28;20193;-67
2021/10/14 10:51:51;;;;;;;1.40;1.20;;;18.70;74.20;;;;;;10451808;28;20288;-67
2021/10/14 10:57:43;;;;;;;1.30;1.03;;;18.60;74.30;;;;;;10470143;28;20205;-67
2021/10/14 11:03:15;;;;;;;1.63;1.10;;;18.60;74.20;;;;;;10474353;28;20220;-67
2021/10/14 11:08:39;;;;;;;1.20;1.10;;;18.60;74.40;;;;;;10488889;28;20694;-67
2021/10/14 11:14:01;;;;;;;1.63;1.20;;;18.60;74.40;;;;;;10483563;28;20200;-67
2021/10/14 11:19:25;;;;;;;1.93;1.20;;;18.60;74.50;;;;;;10456404;28;20227;-67
2021/10/14 11:24:48;;;;;;;2.67;1.50;;;18.60;74.50;;;;;;10451639;28;20216;-68
2021/10/14 11:30:16;;;;;;;1.73;0.97;;;18.60;74.60;;;;;;10475780;28;20227;-68
2021/10/14 11:35:41;;;;;;;2.73;1.10;;;18.70;74.90;;;;;;10487835;28;20662;-66
2021/10/14 11:41:03;;;;;;;2.23;1.20;;;18.70;74.90;;;;;;10472307;28;20216;-66
2021/10/14 11:46:27;;;;;;;1.57;1.20;;;18.70;74.60;;;;;;10459549;28;20224;-69
2021/10/14 11:51:52;;;;;;;1.80;1.37;;;18.80;74.40;;;;;;10490986;28;20221;-67
2021/10/14 11:57:14;;;;;;;1.67;1.13;;;18.80;74.20;;;;;;10481188;28;20205;-68
2021/10/14 12:02:43;;;;;;;1.90;1.30;;;18.80;74.20;;;;;;10471514;28;20224;-67
2021/10/14 12:08:06;;;;;;;0.90;0.90;;;18.80;74.10;;;;;;10471913;28;20231;-67
2021/10/14 12:13:30;;;;;;;2.00;1.40;;;18.80;74.10;;;;;;10472704;28;20693;-68
2021/10/14 12:18:53;;;;;;;2.07;1.50;;;18.70;74.00;;;;;;10478276;28;20719;-67
2021/10/14 12:24:21;;;;;;;1.33;1.00;;;18.70;74.00;;;;;;10462309;28;20213;-68
2021/10/14 12:29:46;;;;;;;2.23;1.23;;;18.70;74.10;;;;;;10451525;28;20213;-67
2021/10/14 12:35:08;;;;;;;1.53;1.40;;;18.70;74.00;;;;;;10461859;28;20200;-67
2021/10/14 12:40:33;;;;;;;1.67;1.27;;;18.80;74.00;;;;;;10450119;28;20219;-67
2021/10/14 12:46:10;;;;;;;1.73;1.30;;;18.80;74.10;;;;;;10456836;28;20229;-67
2021/10/14 12:51:30;;;;;;;3.13;1.40;;;18.80;74.00;;;;;;10384446;28;20247;-69
2021/10/14 12:57:01;;;;;;;2.87;1.20;;;18.80;74.10;;;;;;10385886;28;20194;-70
2021/10/14 13:02:23;;;;;;;1.53;1.20;;;18.80;74.00;;;;;;10393837;28;20218;-70
2021/10/14 13:07:45;;;;;;;1.10;1.00;;;18.80;73.90;;;;;;10403344;28;20222;-69
2021/10/14 13:13:11;;;;;;;1.10;1.00;;;18.80;73.90;;;;;;10406847;28;20201;-70
2021/10/14 13:18:33;;;;;;;2.00;1.57;;;18.80;73.90;;;;;;10406265;28;20241;-70
2021/10/14 13:23:55;;;;;;;2.57;1.33;;;18.80;73.90;;;;;;10386374;28;20619;-71
2021/10/14 13:29:19;;;;;;;1.67;1.17;;;18.80;73.90;;;;;;10387438;28;20395;-72
2021/10/14 13:34:41;;;;;;;2.90;1.33;;;18.90;74.50;;;;;;10404500;28;20193;-72
2021/10/14 13:40:04;;;;;;;2.87;1.13;;;18.80;73.90;;;;;;10408024;28;20221;-72
2021/10/14 13:45:28;;;;;;;2.90;1.37;;;18.90;73.90;;;;;;10407393;28;20218;-72
2021/10/14 13:50:50;;;;;;;2.10;1.33;;;18.80;73.90;;;;;;10397468;28;20715;-71
2021/10/14 13:56:12;;;;;;;1.73;1.10;;;18.80;73.80;;;;;;10382421;28;20194;-70
2021/10/14 14:01:36;;;;;;;1.70;1.20;;;18.80;73.90;;;;;;10374144;28;20213;-68
2021/10/14 14:06:58;;;;;;;2.03;1.53;;;18.90;73.90;;;;;;10381353;28;20221;-71
2021/10/14 14:12:20;;;;;;;1.80;1.50;;;18.80;73.90;;;;;;10404356;28;20372;-70
2021/10/14 14:17:44;;;;;;;3.87;1.90;;;18.80;73.90;;;;;;10406123;28;20198;-70
2021/10/14 14:23:06;;;;;;;4.17;2.10;;;18.80;74.10;;;;;;10406826;28;20237;-70
2021/10/14 14:28:29;;;;;;;2.97;2.00;;;18.70;73.80;;;;;;10408901;28;20214;-70
2021/10/14 14:33:52;;;;;;;3.20;2.07;;;18.70;73.90;;;;;;10409756;28;20320;-70
2021/10/14 14:39:14;;;;;;;3.27;1.80;;;18.70;74.10;;;;;;10408921;28;20232;-70
2021/10/14 14:44:38;;;;;;;2.63;1.90;;;18.70;74.20;;;;;;10408940;28;20224;-69
2021/10/14 14:50:04;;;;;;;3.90;1.80;;;18.70;74.40;;;;;;10409333;28;20752;-70
2021/10/14 14:55:26;;;;;;;2.70;1.90;;;18.70;74.40;;;;;;10409588;28;20190;-70
2021/10/14 15:00:48;;;;;;;1.90;1.70;;;18.70;74.40;;;;;;10408732;28;20236;-70
2021/10/14 15:06:12;;;;;;;2.17;1.77;;;18.70;74.40;;;;;;10409663;28;20218;-70
2021/10/14 15:11:35;;;;;;;2.23;1.60;;;18.70;74.40;;;;;;10401700;28;20225;-70
2021/10/14 15:16:57;;;;;;;1.60;1.50;;;18.70;74.50;;;;;;10407294;28;20198;-70
2021/10/14 15:22:20;;;;;;;2.63;1.90;;;18.70;74.50;;;;;;10411693;28;20209;-70
2021/10/14 15:27:43;;;;;;;1.87;1.60;;;18.70;74.50;;;;;;10416323;28;20212;-70
2021/10/14 15:33:06;;;;;;;2.30;1.80;;;18.70;74.50;;;;;;10415246;28;20664;-70
2021/10/14 15:38:30;;;;;;;1.60;1.50;;;18.70;74.50;;;;;;10417051;28;20721;-71
2021/10/14 15:43:52;;;;;;;2.20;1.47;;;18.60;74.50;;;;;;10416518;28;20210;-71
2021/10/14 15:49:14;;;;;;;2.30;1.73;;;18.70;74.60;;;;;;10415858;28;20580;-70
2021/10/14 15:54:38;;;;;;;1.93;1.73;;;18.70;74.50;;;;;;10416919;28;20194;-70
2021/10/14 16:00:00;;;;;;;1.43;1.30;;;18.70;74.50;;;;;;10414915;28;20214;-70
2021/10/14 16:05:23;;;;;;;1.67;1.57;;;18.70;74.50;;;;;;10416735;28;20217;-70
2021/10/14 16:10:47;;;;;;;1.80;1.40;;;18.70;74.50;;;;;;10409636;28;20228;-70
2021/10/14 16:16:10;;;;;;;2.10;1.70;;;18.70;74.50;;;;;;10414079;28;20204;-70
2021/10/14 16:21:32;;;;;;;2.33;1.67;;;18.70;74.50;;;;;;10413704;28;20214;-70
2021/10/14 16:26:58;;;;;;;2.73;1.80;;;18.70;74.40;;;;;;10414370;28;20213;-70
2021/10/14 16:32:23;;;;;;;1.70;1.53;;;18.70;74.40;;;;;;10412174;28;20206;-70
2021/10/14 16:37:45;;;;;;;3.10;1.50;;;18.70;75.00;;;;;;10413788;28;20343;-69
2021/10/14 16:43:09;;;;;;;2.13;1.80;;;18.70;74.40;;;;;;10410728;28;20214;-69
2021/10/14 16:48:31;;;;;;;2.83;1.60;;;18.70;74.40;;;;;;10423452;28;20233;-70
2021/10/14 16:53:53;;;;;;;2.70;1.90;;;18.70;74.40;;;;;;10410520;28;20194;-68
2021/10/14 16:59:18;;;;;;;2.60;1.67;;;18.70;74.40;;;;;;10411361;28;20221;-68
2021/10/14 17:04:41;;;;;;;2.60;1.50;;;18.70;74.40;;;;;;10412207;28;20571;-68
2021/10/14 17:10:04;;;;;;;1.90;1.60;;;18.70;74.40;;;;;;10409635;28;20213;-68
2021/10/14 17:15:47;;;;;;;2.30;1.60;;;18.70;74.40;;;;;;10412035;28;20194;-68
2021/10/14 17:38:15;;;;;;;2.07;1.87;;;18.70;74.40;;;;;;10410048;28;20208;-67
2021/10/14 17:43:40;;;;;;;2.53;1.63;;;18.60;74.20;;;;;;10409744;28;20225;-67
2021/10/14 17:49:04;;;;;;;2.97;2.00;;;18.70;74.20;;;;;;10409822;28;20236;-67
2021/10/14 17:54:26;;;;;;;2.07;1.60;;;18.70;74.20;;;;;;10408554;28;20190;-67
2021/10/14 17:59:49;;;;;;;2.40;1.83;;;18.70;74.20;;;;;;10407512;28;20240;-66
2021/10/14 18:34:13;;;;;;;2.57;1.93;;;18.70;74.20;;;;;;10406849;28;20186;-66
2021/10/14 18:39:37;;;;;;;3.10;1.73;;;18.70;74.20;;;;;;10409228;28;20209;-66
2021/10/14 18:44:59;;;;;;;2.30;1.77;;;18.70;74.20;;;;;;10409759;28;20615;-66
2021/10/14 18:50:27;;;;;;;2.37;1.80;;;18.70;74.20;;;;;;10477391;23;20238;-66
2021/10/14 18:55:51;;;;;;;2.23;1.67;;;18.70;74.20;;;;;;10487820;28;21021;-66
2021/10/14 19:01:13;;;;;;;2.33;1.80;;;18.70;74.20;;;;;;10486665;28;20215;-65
2021/10/14 19:06:37;;;;;;;2.77;1.60;;;18.70;74.20;;;;;;10489854;28;20681;-65
2021/10/14 19:18:02;;;;;;;2.07;1.87;;;18.70;74.10;;;;;;10321441;28;20696;-69
2021/10/14 20:20:18;;;;;;;1.97;1.70;;;18.70;74.10;;;;;;10515361;28;20203;-68
2021/10/14 20:25:40;;;;;;;3.00;1.60;;;18.70;74.10;;;;;;10517033;28;20212;-68
2021/10/14 20:31:06;;;;;;;2.70;1.87;;;18.70;74.10;;;;;;10513578;28;20282;-68
2021/10/14 20:36:30;;;;;;;2.10;1.60;;;18.70;74.10;;;;;;10507986;28;20200;-68
2021/10/14 20:41:52;;;;;;;2.50;1.40;;;18.70;74.10;;;;;;10512731;28;20218;-68
2021/10/14 20:47:14;;;;;;;1.97;1.40;;;18.70;74.10;;;;;;10514309;28;20215;-68
2021/10/14 20:52:50;;;;;;;1.77;1.50;;;18.70;74.20;;;;;;10515260;28;20192;-68
2021/10/14 21:03:52;;;;;;;2.90;1.80;;;18.60;74.30;;;;;;10504515;28;20261;-68
2021/10/14 21:09:15;;;;;;;1.80;1.60;;;18.60;74.40;;;;;;10514012;28;20207;-68
2021/10/14 21:14:37;;;;;;;2.50;2.10;;;18.60;74.50;;;;;;10514749;28;20202;-68
2021/10/14 21:20:00;;;;;;;2.03;1.70;;;18.60;74.50;;;;;;10512446;28;20215;-68
2021/10/14 21:25:24;;;;;;;2.30;2.03;;;18.60;74.60;;;;;;10517829;28;20678;-68
2021/10/14 21:36:22;;;;;;;2.77;2.23;;;18.60;74.80;;;;;;10514091;28;20184;-68
2021/10/14 21:41:46;;;;;;;4.00;2.50;;;18.50;74.80;;;;;;10510545;28;20216;-68
2021/10/14 21:47:08;;;;;;;2.23;2.03;;;18.50;74.90;;;;;;10513604;28;20606;-68
2021/10/14 21:52:31;;;;;;;2.80;2.17;;;18.50;74.90;;;;;;10535251;28;20188;-68
2021/10/14 21:57:55;;;;;;;4.17;2.30;;;18.50;74.90;;;;;;10492118;28;20288;-67
2021/10/14 22:03:17;;;;;;;3.10;2.50;;;18.50;75.00;;;;;;10492220;28;20197;-68
2021/10/14 22:08:39;;;;;;;3.53;2.60;;;18.50;74.90;;;;;;10490564;28;20220;-67
2021/10/14 22:14:03;;;;;;;3.17;2.57;;;18.50;75.00;;;;;;10491711;28;20188;-68
2021/10/14 22:19:25;;;;;;;3.43;2.70;;;18.50;75.00;;;;;;10495752;28;20851;-68
2021/10/14 22:24:47;;;;;;;4.13;2.70;;;18.50;75.00;;;;;;10507282;28;20215;-68
2021/10/14 22:30:13;;;;;;;3.60;2.47;;;18.50;75.10;;;;;;10490590;28;20219;-67
2021/10/14 22:35:35;;;;;;;2.83;2.23;;;18.50;75.10;;;;;;10489812;28;20192;-68
2021/10/14 22:40:57;;;;;;;3.77;2.70;;;18.50;75.10;;;;;;10492367;28;20696;-68
2021/10/14 22:46:21;;;;;;;3.10;2.33;;;18.40;75.10;;;;;;10491079;28;20212;-68
2021/10/14 22:51:43;;;;;;;4.10;2.57;;;18.40;75.10;;;;;;10490661;28;20220;-68
2021/10/14 22:57:05;;;;;;;3.87;2.43;;;18.40;75.10;;;;;;10490236;28;20272;-68
2021/10/14 23:02:29;;;;;;;3.43;2.30;;;18.50;75.10;;;;;;10483638;28;20197;-68
2021/10/14 23:07:51;;;;;;;2.80;2.47;;;18.50;75.10;;;;;;10491136;28;20230;-68
2021/10/14 23:13:28;;;;;;;2.70;2.50;;;18.40;75.10;;;;;;10490877;28;20205;-68
2021/10/14 23:18:52;;;;;;;2.67;2.33;;;18.40;75.00;;;;;;10483198;28;20204;-68
2021/10/14 23:24:14;;;;;;;3.93;2.77;;;18.40;75.20;;;;;;10490174;28;20615;-67
2021/10/14 23:29:36;;;;;;;3.37;2.33;;;18.40;75.30;;;;;;10490251;28;20586;-68
2021/10/14 23:34:59;;;;;;;3.07;2.40;;;18.40;75.20;;;;;;10490023;28;20193;-67
2021/10/14 23:40:22;;;;;;;3.50;2.40;;;18.40;75.30;;;;;;10491259;28;20214;-68
2021/10/14 23:45:44;;;;;;;3.40;2.40;;;18.40;75.30;;;;;;10498425;28;20223;-68
2021/10/14 23:51:07;;;;;;;4.17;2.37;;;18.40;75.20;;;;;;10498640;28;20712;-67
2021/10/14 23:56:29;;;;;;;4.53;2.70;;;18.40;75.20;;;;;;10497800;28;20204;-67
